Terminal Aerodrome Forecast
Issued by NWS Charleston, WV

Current Version | Previous Version | Text Only | Print | Product List | Glossary On
Versions: 1 2 3 4 5 6 7 8 9 10 11 12 13 14 15 16 17
000
FTUS41 KRLX 280500
TAFBKW
TAF
KBKW 280527Z 2806/2906 16003KT P6SM BKN040 BKN080
     FM280800 24004KT 3SM -SHRA BKN014 OVC035
     FM281200 VRB03KT 4SM -SHRA BR SCT015 OVC030
     FM281500 23005KT 2SM -SHRA BR BKN006 OVC015
     FM282100 30007KT 2SM -RA BR OVC008=

USA.gov is the U.S. government's official web portal to all federal, state and local government web resources and services.